RJNG(METAR)
02/18 15:00
METAR RJNG 180600Z 26008KT 230V290 9999 FEW250 14/M01 Q1022 RMK
A3020=
戻る
トップページへ戻る
IMOC Co,.Ltd.